Time;durP1;ratioP1;P1;durP2;ratioP2;P2;SDS_P1;SDS_P2;PMS_P1;PMS_P2;Temp;Humidity;BMP_temperature;BMP_pressure;BME280_temperature;BME280_humidity;BME280_pressure;Samples;Min_cycle;Max_cycle;Signal;HPM_P1;HPM_P2
2023/07/26 00:00:14;;;;;;;4.17;3.37;;;15.20;99.90;;;;;;5010793;28;20450;-65
2023/07/26 00:02:40;;;;;;;12.50;3.67;;;15.20;99.90;;;;;;5010285;28;20454;-65
2023/07/26 00:05:08;;;;;;;3.33;3.10;;;15.20;99.90;;;;;;5010425;28;20458;-65
2023/07/26 00:07:35;;;;;;;3.30;3.10;;;15.20;99.90;;;;;;5009798;28;20450;-65
2023/07/26 00:10:03;;;;;;;4.60;3.60;;;15.10;99.90;;;;;;5010881;28;20457;-66
2023/07/26 00:12:30;;;;;;;5.67;3.37;;;15.10;99.90;;;;;;5002846;28;20545;-66
2023/07/26 00:14:57;;;;;;;3.00;2.80;;;15.10;99.90;;;;;;5002063;28;20487;-65
2023/07/26 00:17:24;;;;;;;2.80;2.60;;;15.10;99.90;;;;;;5009535;28;20537;-66
2023/07/26 00:19:51;;;;;;;3.00;2.70;;;15.10;99.90;;;;;;5010243;28;20458;-65
2023/07/26 00:22:18;;;;;;;6.40;3.80;;;15.10;99.90;;;;;;5008376;28;20555;-66
2023/07/26 00:24:45;;;;;;;3.07;2.87;;;15.10;99.90;;;;;;5009852;28;20485;-65
2023/07/26 00:27:16;;;;;;;3.17;2.97;;;15.10;99.90;;;;;;5009511;28;20548;-66
2023/07/26 00:29:43;;;;;;;6.17;3.93;;;15.00;99.90;;;;;;5010326;28;20476;-66
2023/07/26 00:32:10;;;;;;;4.70;3.50;;;15.00;99.90;;;;;;5010352;28;20461;-66
2023/07/26 00:34:37;;;;;;;4.03;3.53;;;15.00;99.90;;;;;;5010207;28;20500;-65
2023/07/26 00:37:05;;;;;;;3.57;3.20;;;15.00;99.90;;;;;;5009113;28;20495;-65
2023/07/26 00:39:32;;;;;;;2.80;2.60;;;15.00;99.90;;;;;;5010247;28;20465;-66
2023/07/26 00:41:59;;;;;;;3.27;2.97;;;15.00;99.90;;;;;;5009950;28;20450;-66
2023/07/26 00:44:27;;;;;;;4.97;3.00;;;14.90;99.90;;;;;;5010036;28;20558;-66
2023/07/26 00:46:54;;;;;;;5.17;3.60;;;14.90;99.90;;;;;;5009039;28;20838;-65
2023/07/26 00:49:21;;;;;;;5.07;3.80;;;14.90;99.90;;;;;;5009714;28;20536;-65
2023/07/26 00:51:48;;;;;;;3.73;3.43;;;14.90;99.90;;;;;;5009522;28;20960;-65
2023/07/26 00:54:17;;;;;;;3.90;3.33;;;14.90;99.90;;;;;;5009568;28;20485;-66
2023/07/26 00:56:44;;;;;;;3.97;3.50;;;14.80;99.90;;;;;;5009003;28;20454;-66
2023/07/26 00:59:12;;;;;;;3.27;3.07;;;14.80;99.90;;;;;;5009367;28;20457;-66
2023/07/26 01:01:40;;;;;;;3.57;3.30;;;14.80;99.90;;;;;;5009494;28;20461;-65
2023/07/26 01:04:07;;;;;;;3.83;3.53;;;14.70;99.90;;;;;;5009364;28;21264;-66
2023/07/26 01:06:42;;;;;;;4.20;3.57;;;14.70;99.90;;;;;;5009092;28;20556;-65
2023/07/26 01:09:14;;;;;;;3.37;2.97;;;14.70;99.90;;;;;;5009459;28;20475;-66
2023/07/26 01:11:48;;;;;;;3.93;3.63;;;14.60;99.90;;;;;;5009358;28;20457;-65
2023/07/26 01:14:22;;;;;;;6.00;3.87;;;14.60;99.90;;;;;;5009201;28;20466;-65
2023/07/26 01:16:50;;;;;;;3.30;3.07;;;14.60;99.90;;;;;;5008541;28;20528;-66
2023/07/26 01:19:17;;;;;;;3.70;3.40;;;14.60;99.90;;;;;;5009301;28;20460;-66
2023/07/26 01:21:45;;;;;;;3.30;3.00;;;14.50;99.90;;;;;;5008247;28;20476;-65
2023/07/26 01:24:12;;;;;;;3.40;3.10;;;14.50;99.90;;;;;;5009103;28;20480;-66
2023/07/26 01:26:39;;;;;;;4.10;3.03;;;14.50;99.90;;;;;;5008402;28;20549;-65
2023/07/26 01:29:06;;;;;;;3.60;3.30;;;14.50;99.90;;;;;;5009037;28;20544;-66
2023/07/26 01:31:33;;;;;;;4.47;2.53;;;14.40;99.90;;;;;;5009019;28;20568;-66
2023/07/26 01:34:02;;;;;;;3.40;3.10;;;14.40;99.90;;;;;;5008957;28;20508;-66
2023/07/26 01:36:30;;;;;;;4.33;2.97;;;14.40;99.90;;;;;;5008347;28;20537;-66
2023/07/26 01:38:59;;;;;;;2.87;2.73;;;14.40;99.90;;;;;;5008602;28;20497;-65
2023/07/26 01:41:27;;;;;;;3.50;2.87;;;14.30;99.90;;;;;;5008647;28;20540;-66
2023/07/26 01:43:54;;;;;;;3.90;3.60;;;14.30;99.90;;;;;;5007993;28;20469;-65
2023/07/26 01:46:20;;;;;;;3.27;3.07;;;14.30;99.90;;;;;;5007944;28;20489;-65
2023/07/26 01:48:47;;;;;;;3.83;3.10;;;14.20;99.90;;;;;;5008846;28;20892;-66
2023/07/26 01:51:14;;;;;;;4.00;3.27;;;14.20;99.90;;;;;;5007796;28;20905;-65
2023/07/26 01:53:41;;;;;;;3.80;3.40;;;14.20;99.90;;;;;;5008071;28;20922;-66
2023/07/26 01:56:09;;;;;;;3.67;3.13;;;14.10;99.90;;;;;;5007641;28;20453;-66
2023/07/26 01:58:36;;;;;;;3.57;3.37;;;14.10;99.90;;;;;;5008571;28;20547;-65
2023/07/26 02:01:04;;;;;;;3.00;2.80;;;14.10;99.90;;;;;;5008495;28;20493;-65
2023/07/26 02:03:31;;;;;;;3.40;3.10;;;14.10;99.90;;;;;;5008261;28;21002;-65
2023/07/26 02:05:58;;;;;;;4.50;3.37;;;14.10;99.90;;;;;;5007547;28;20486;-66
2023/07/26 02:08:25;;;;;;;3.37;3.00;;;14.10;99.90;;;;;;5008283;28;20462;-65
2023/07/26 02:10:52;;;;;;;3.50;3.20;;;14.10;99.90;;;;;;5007732;28;20450;-66
2023/07/26 02:13:20;;;;;;;3.90;3.47;;;14.10;99.90;;;;;;5008457;28;20496;-66
2023/07/26 02:15:47;;;;;;;3.27;3.07;;;14.10;99.90;;;;;;5007945;28;20456;-66
2023/07/26 02:18:14;;;;;;;4.13;3.73;;;14.10;99.90;;;;;;5007952;28;20545;-65
2023/07/26 02:20:41;;;;;;;3.87;3.50;;;14.10;99.90;;;;;;5007225;28;20986;-65
2023/07/26 02:23:08;;;;;;;3.43;3.00;;;14.10;99.90;;;;;;5008298;28;20479;-65
2023/07/26 02:25:35;;;;;;;4.97;3.27;;;14.10;99.90;;;;;;5007542;28;20600;-66
2023/07/26 02:28:02;;;;;;;3.30;3.00;;;14.00;99.90;;;;;;5007614;28;20460;-66
2023/07/26 02:30:30;;;;;;;3.23;3.03;;;14.10;99.90;;;;;;5008084;28;20456;-65
2023/07/26 02:32:57;;;;;;;4.80;3.90;;;14.10;99.90;;;;;;5007991;28;20564;-65
2023/07/26 02:35:24;;;;;;;3.53;3.30;;;14.00;99.90;;;;;;5008283;28;20537;-66
2023/07/26 02:37:51;;;;;;;4.47;4.07;;;14.00;99.90;;;;;;5007522;28;20456;-65
2023/07/26 02:40:18;;;;;;;3.13;2.93;;;14.00;99.90;;;;;;5002130;28;20455;-66
2023/07/26 02:42:45;;;;;;;5.27;3.80;;;14.00;99.90;;;;;;4998832;28;20454;-65
2023/07/26 02:45:12;;;;;;;4.23;3.10;;;14.00;99.90;;;;;;4998948;28;20494;-66
2023/07/26 02:47:40;;;;;;;3.27;3.00;;;14.00;99.90;;;;;;4999100;28;20460;-65
2023/07/26 02:50:07;;;;;;;4.97;3.60;;;14.00;99.90;;;;;;5008277;28;20726;-65
2023/07/26 02:52:34;;;;;;;3.47;3.27;;;14.00;99.90;;;;;;5007866;28;20498;-66
2023/07/26 02:55:01;;;;;;;2.97;2.83;;;14.00;99.90;;;;;;5007875;28;20460;-65
2023/07/26 02:57:28;;;;;;;3.77;3.57;;;14.00;99.90;;;;;;5007073;28;20447;-66
2023/07/26 02:59:55;;;;;;;3.87;3.50;;;14.10;99.90;;;;;;5007790;28;20461;-66
2023/07/26 03:02:23;;;;;;;3.30;3.10;;;14.00;99.90;;;;;;4992117;28;20453;-66
2023/07/26 03:04:51;;;;;;;3.20;2.90;;;14.00;99.90;;;;;;5007426;28;20565;-65
2023/07/26 03:07:18;;;;;;;3.43;2.77;;;14.00;99.90;;;;;;5006994;28;20548;-66
2023/07/26 03:09:45;;;;;;;3.90;2.90;;;14.10;99.90;;;;;;5007887;28;20458;-65
2023/07/26 03:12:12;;;;;;;3.53;3.20;;;14.10;99.90;;;;;;5007926;28;20460;-65
2023/07/26 03:14:40;;;;;;;3.60;3.30;;;14.10;99.90;;;;;;5007733;28;20478;-65
2023/07/26 03:17:08;;;;;;;4.33;3.47;;;14.10;99.90;;;;;;5007120;28;20465;-65
2023/07/26 03:19:35;;;;;;;3.20;3.00;;;14.10;99.90;;;;;;5007796;28;20465;-66
2023/07/26 03:22:04;;;;;;;5.37;3.97;;;14.10;99.90;;;;;;5008799;28;20477;-65
2023/07/26 03:24:31;;;;;;;3.70;3.33;;;14.10;99.90;;;;;;5011219;28;20478;-66
2023/07/26 03:26:57;;;;;;;3.47;3.20;;;14.10;99.90;;;;;;5010689;28;20477;-65
2023/07/26 03:29:24;;;;;;;5.13;3.10;;;14.10;99.90;;;;;;5011112;28;20476;-66
2023/07/26 03:31:51;;;;;;;3.97;3.30;;;14.10;99.90;;;;;;5003374;28;20453;-65
2023/07/26 03:34:18;;;;;;;3.90;3.50;;;14.10;99.90;;;;;;5002956;28;20505;-65
2023/07/26 03:36:45;;;;;;;3.73;3.40;;;14.10;99.90;;;;;;5010512;28;20460;-66
2023/07/26 03:39:13;;;;;;;5.43;3.67;;;14.10;99.90;;;;;;5011099;28;20541;-65
2023/07/26 03:41:40;;;;;;;8.43;3.43;;;14.00;99.90;;;;;;5011003;28;20461;-65
2023/07/26 03:44:07;;;;;;;4.30;4.00;;;14.00;99.90;;;;;;5010936;28;20484;-65
2023/07/26 03:46:34;;;;;;;3.37;3.07;;;14.00;99.90;;;;;;5010124;28;20494;-65
2023/07/26 03:49:00;;;;;;;4.20;2.97;;;14.00;99.90;;;;;;5010543;28;20541;-65
2023/07/26 03:51:27;;;;;;;2.90;2.70;;;14.00;99.90;;;;;;5010826;28;20460;-66
2023/07/26 03:53:54;;;;;;;3.90;3.60;;;14.00;99.90;;;;;;5011132;28;20483;-66
2023/07/26 03:56:22;;;;;;;4.50;3.30;;;14.00;99.90;;;;;;5007726;28;20836;-65
2023/07/26 03:58:49;;;;;;;3.23;3.03;;;14.00;99.90;;;;;;5010895;28;20489;-66
2023/07/26 04:01:16;;;;;;;4.27;2.73;;;14.00;99.90;;;;;;5010876;28;20450;-66
2023/07/26 04:03:43;;;;;;;3.33;3.13;;;14.00;99.90;;;;;;5010885;28;20477;-65
2023/07/26 04:06:12;;;;;;;3.77;3.47;;;14.00;99.90;;;;;;5009870;28;20593;-65
2023/07/26 04:08:39;;;;;;;3.03;2.83;;;14.00;99.90;;;;;;5010722;28;20485;-66
2023/07/26 04:11:06;;;;;;;3.70;3.50;;;14.00;99.90;;;;;;5010638;28;20854;-66
2023/07/26 04:13:35;;;;;;;3.30;3.10;;;14.00;99.90;;;;;;5010491;28;20482;-66
2023/07/26 04:16:01;;;;;;;4.20;3.80;;;14.00;99.90;;;;;;5009699;28;21269;-65
2023/07/26 04:18:29;;;;;;;4.00;3.40;;;14.00;99.90;;;;;;5010256;28;20458;-66
2023/07/26 04:20:55;;;;;;;3.60;3.33;;;13.90;99.90;;;;;;5009450;28;21215;-65
2023/07/26 04:23:22;;;;;;;4.23;3.93;;;13.90;99.90;;;;;;5010055;28;20573;-65
2023/07/26 04:25:50;;;;;;;4.97;4.57;;;13.90;99.90;;;;;;5005368;28;20482;-65
2023/07/26 04:28:17;;;;;;;3.70;3.40;;;13.90;99.90;;;;;;5005029;28;20884;-66
2023/07/26 04:30:48;;;;;;;7.83;4.73;;;13.90;99.90;;;;;;5010140;28;20462;-65
2023/07/26 04:33:15;;;;;;;4.20;3.90;;;13.90;99.90;;;;;;5009626;28;20532;-66
2023/07/26 04:35:44;;;;;;;4.00;3.60;;;13.90;99.90;;;;;;5010140;28;21288;-65
2023/07/26 04:38:12;;;;;;;4.43;3.73;;;13.90;99.90;;;;;;5009315;28;20469;-65
2023/07/26 04:40:39;;;;;;;5.60;4.00;;;13.90;99.90;;;;;;5009101;28;20450;-65
2023/07/26 04:43:06;;;;;;;4.30;3.77;;;13.90;99.90;;;;;;5008862;28;20481;-65
2023/07/26 04:45:32;;;;;;;7.37;3.50;;;13.90;99.90;;;;;;5009525;28;21219;-66
2023/07/26 04:48:01;;;;;;;3.77;3.33;;;13.90;99.90;;;;;;5008979;28;20991;-66
2023/07/26 04:50:28;;;;;;;4.47;3.63;;;14.00;99.90;;;;;;5009843;28;20464;-66
2023/07/26 04:52:54;;;;;;;5.23;4.80;;;14.00;99.90;;;;;;5005764;23;20590;-66
2023/07/26 04:55:21;;;;;;;6.73;3.93;;;14.00;99.90;;;;;;4970517;28;20460;-66
2023/07/26 04:57:48;;;;;;;4.63;4.23;;;14.00;99.90;;;;;;4969839;28;20590;-66
2023/07/26 05:00:15;;;;;;;3.93;3.63;;;14.00;99.90;;;;;;4970886;28;20461;-66
2023/07/26 05:02:42;;;;;;;4.90;4.50;;;14.00;99.90;;;;;;4978792;28;20506;-66
2023/07/26 05:05:10;;;;;;;5.93;3.87;;;14.10;99.90;;;;;;4971169;28;20460;-66
2023/07/26 05:07:37;;;;;;;4.80;4.20;;;14.00;99.90;;;;;;4969074;28;20531;-66
2023/07/26 05:10:04;;;;;;;4.23;4.00;;;14.10;99.90;;;;;;4982103;28;20451;-66
2023/07/26 05:12:31;;;;;;;3.77;3.47;;;14.10;99.90;;;;;;4987962;28;20475;-66
2023/07/26 05:14:58;;;;;;;5.63;4.27;;;14.10;99.90;;;;;;4981838;28;20451;-66
2023/07/26 05:17:24;;;;;;;5.17;4.00;;;14.10;99.90;;;;;;4989445;28;20952;-66
2023/07/26 05:19:51;;;;;;;4.80;4.50;;;14.20;99.90;;;;;;4990029;28;20459;-66
2023/07/26 05:22:19;;;;;;;4.77;4.47;;;14.20;99.90;;;;;;4989883;28;20850;-66
2023/07/26 05:24:46;;;;;;;7.00;4.43;;;14.30;99.90;;;;;;4989793;28;20461;-66
2023/07/26 05:27:13;;;;;;;4.60;4.20;;;14.20;99.90;;;;;;4989191;28;20491;-66
2023/07/26 05:29:40;;;;;;;4.80;4.40;;;14.30;99.90;;;;;;4989610;28;21003;-66
2023/07/26 05:32:08;;;;;;;4.53;4.13;;;14.40;99.90;;;;;;4980528;28;20475;-66
2023/07/26 05:34:35;;;;;;;4.73;4.43;;;14.40;99.90;;;;;;4986972;28;20971;-66
2023/07/26 05:37:02;;;;;;;6.40;5.57;;;14.50;99.90;;;;;;4988666;28;20901;-66
2023/07/26 05:39:31;;;;;;;5.20;4.60;;;14.60;99.90;;;;;;4989237;28;20466;-66
2023/07/26 05:41:57;;;;;;;5.83;4.13;;;14.70;99.90;;;;;;4989405;28;20830;-66
2023/07/26 05:44:24;;;;;;;5.03;4.63;;;14.80;99.90;;;;;;4989544;28;20452;-66
2023/07/26 05:46:51;;;;;;;6.00;5.43;;;14.90;99.90;;;;;;4988806;28;21254;-66
2023/07/26 05:49:18;;;;;;;6.07;5.60;;;15.00;99.90;;;;;;4989396;28;20550;-66
2023/07/26 05:51:45;;;;;;;5.07;4.43;;;15.00;99.90;;;;;;4989292;28;20545;-66
2023/07/26 05:54:12;;;;;;;5.77;5.00;;;15.10;99.90;;;;;;4989268;28;20546;-67
2023/07/26 05:56:40;;;;;;;4.87;4.57;;;15.20;99.90;;;;;;4988657;28;20458;-66
2023/07/26 05:59:07;;;;;;;5.03;4.73;;;15.20;99.90;;;;;;4989407;28;20461;-66
2023/07/26 06:01:33;;;;;;;5.63;5.00;;;15.30;99.90;;;;;;4985360;28;20542;-66
2023/07/26 06:04:00;;;;;;;5.93;5.40;;;15.30;99.90;;;;;;4981977;28;21052;-66
2023/07/26 06:06:27;;;;;;;7.00;5.47;;;15.30;99.90;;;;;;4988298;28;20496;-66
2023/07/26 06:08:54;;;;;;;6.93;4.83;;;15.40;99.90;;;;;;4989199;28;21152;-66
2023/07/26 06:11:21;;;;;;;6.90;5.73;;;15.40;99.90;;;;;;4988887;28;21029;-66
2023/07/26 06:13:49;;;;;;;7.40;5.90;;;15.40;99.90;;;;;;4979431;28;20454;-66
2023/07/26 06:16:16;;;;;;;4.30;3.90;;;15.40;99.90;;;;;;4949377;28;20543;-66
2023/07/26 06:18:43;;;;;;;4.97;4.57;;;15.30;99.90;;;;;;4959068;28;21158;-66
2023/07/26 06:21:11;;;;;;;6.63;6.10;;;15.30;99.90;;;;;;4956518;28;20457;-66
2023/07/26 06:23:38;;;;;;;6.10;5.13;;;15.30;99.90;;;;;;4956520;28;20555;-66
2023/07/26 06:26:05;;;;;;;5.13;4.63;;;15.30;99.90;;;;;;4949587;28;20495;-66
2023/07/26 06:28:32;;;;;;;6.13;4.23;;;15.30;99.90;;;;;;4950471;28;20556;-66
2023/07/26 06:31:00;;;;;;;5.43;5.03;;;15.30;99.90;;;;;;4950129;28;20453;-66
2023/07/26 06:33:27;;;;;;;4.90;4.57;;;15.30;99.90;;;;;;4950128;28;20487;-66
2023/07/26 06:35:54;;;;;;;7.33;6.77;;;15.40;99.90;;;;;;4949761;28;21143;-66
2023/07/26 06:38:21;;;;;;;6.40;5.10;;;15.40;99.90;;;;;;4949926;28;20959;-66
2023/07/26 06:40:48;;;;;;;4.73;4.30;;;15.40;99.90;;;;;;4949935;28;20457;-66
2023/07/26 06:43:15;;;;;;;6.10;5.20;;;15.40;99.90;;;;;;4950204;28;20484;-66
2023/07/26 06:45:46;;;;;;;5.37;4.93;;;15.40;99.90;;;;;;4950135;28;20464;-67
2023/07/26 06:48:14;;;;;;;5.30;4.80;;;15.40;99.90;;;;;;4949683;28;20456;-66
2023/07/26 06:50:41;;;;;;;6.33;4.40;;;15.50;99.90;;;;;;4950101;28;20453;-66
2023/07/26 06:53:08;;;;;;;4.50;4.20;;;15.50;99.90;;;;;;4964801;28;20479;-66
2023/07/26 06:55:35;;;;;;;5.27;4.87;;;15.50;99.90;;;;;;4980644;28;20473;-66
2023/07/26 06:58:02;;;;;;;6.37;4.23;;;15.50;99.90;;;;;;4991865;28;20450;-67
2023/07/26 07:00:29;;;;;;;4.47;4.10;;;15.50;99.90;;;;;;4992418;28;20451;-66
2023/07/26 07:02:56;;;;;;;5.50;5.10;;;15.50;99.90;;;;;;4992286;28;20481;-66
2023/07/26 07:05:25;;;;;;;4.53;4.23;;;15.50;99.90;;;;;;4992373;28;20466;-66
2023/07/26 07:07:51;;;;;;;5.67;5.20;;;15.60;99.90;;;;;;4991856;28;20488;-65
2023/07/26 07:10:18;;;;;;;6.17;5.63;;;15.60;99.90;;;;;;4992573;28;20464;-65
2023/07/26 07:12:45;;;;;;;4.97;4.57;;;15.60;99.90;;;;;;4992456;28;20528;-66
2023/07/26 07:15:12;;;;;;;7.43;4.50;;;15.60;99.90;;;;;;4992212;28;20458;-66
2023/07/26 07:17:39;;;;;;;5.13;4.63;;;15.70;99.90;;;;;;4991462;28;20457;-66
2023/07/26 07:20:07;;;;;;;5.03;4.70;;;15.70;99.90;;;;;;4991964;28;20571;-66
2023/07/26 07:22:35;;;;;;;7.60;5.43;;;15.70;99.90;;;;;;4992185;28;20483;-66
2023/07/26 07:25:03;;;;;;;5.67;5.13;;;15.70;99.90;;;;;;4992092;28;20457;-65
2023/07/26 07:27:30;;;;;;;4.60;4.20;;;15.80;99.90;;;;;;4991293;28;20493;-66
2023/07/26 07:29:56;;;;;;;5.67;4.87;;;15.90;99.90;;;;;;4991938;28;20462;-66
2023/07/26 07:32:23;;;;;;;7.13;4.50;;;15.90;99.90;;;;;;4991962;28;20480;-66
2023/07/26 07:34:50;;;;;;;6.47;4.63;;;16.00;99.90;;;;;;4992223;28;20461;-66
2023/07/26 07:37:17;;;;;;;4.70;4.40;;;16.10;99.90;;;;;;4991153;28;20451;-65
2023/07/26 07:39:45;;;;;;;4.80;4.40;;;16.20;99.90;;;;;;4992067;28;20486;-66
2023/07/26 07:42:12;;;;;;;4.90;4.60;;;16.30;99.90;;;;;;4991708;28;20471;-66
2023/07/26 07:44:39;;;;;;;6.13;5.40;;;16.40;99.90;;;;;;4991780;28;20458;-67
2023/07/26 07:47:06;;;;;;;4.70;4.30;;;16.50;99.90;;;;;;4990674;28;20523;-66
2023/07/26 07:49:33;;;;;;;4.80;4.30;;;16.60;99.90;;;;;;4991562;28;20456;-65
2023/07/26 07:52:01;;;;;;;4.60;4.30;;;16.70;99.90;;;;;;4991098;28;20487;-66
2023/07/26 07:54:28;;;;;;;5.47;5.07;;;16.90;99.90;;;;;;4991734;28;20471;-66
2023/07/26 07:56:56;;;;;;;5.40;4.47;;;16.90;99.90;;;;;;4991515;28;20993;-66
2023/07/26 07:59:23;;;;;;;4.80;4.13;;;16.90;99.90;;;;;;4992006;28;20965;-66
2023/07/26 08:01:50;;;;;;;4.60;4.30;;;16.90;99.90;;;;;;4991821;28;20483;-65
2023/07/26 08:04:17;;;;;;;5.13;4.50;;;16.90;99.90;;;;;;4992192;28;20542;-66
2023/07/26 08:06:44;;;;;;;5.70;4.93;;;17.00;99.90;;;;;;4991332;28;20504;-65
2023/07/26 08:09:10;;;;;;;4.27;3.87;;;17.00;99.90;;;;;;4991106;28;20481;-65
2023/07/26 08:11:37;;;;;;;5.30;4.67;;;17.00;99.90;;;;;;4991594;28;20461;-66
2023/07/26 08:14:05;;;;;;;5.40;4.10;;;17.00;99.90;;;;;;4991407;28;20845;-66
2023/07/26 08:16:33;;;;;;;4.37;3.97;;;17.00;99.90;;;;;;4991303;28;20456;-66
2023/07/26 08:19:02;;;;;;;6.37;4.90;;;16.90;99.90;;;;;;4992016;28;20542;-66
2023/07/26 08:21:29;;;;;;;6.97;4.90;;;16.90;99.90;;;;;;4991884;28;20491;-66
2023/07/26 08:23:56;;;;;;;4.63;4.23;;;16.70;99.90;;;;;;4991556;28;20538;-66
2023/07/26 08:26:23;;;;;;;3.60;3.40;;;16.50;99.90;;;;;;4990429;28;20853;-66
2023/07/26 08:28:50;;;;;;;3.10;2.90;;;16.40;99.90;;;;;;4991690;28;20542;-65
2023/07/26 08:31:18;;;;;;;3.03;2.93;;;16.10;99.90;;;;;;4991849;28;20457;-66
2023/07/26 08:33:45;;;;;;;3.47;3.17;;;15.80;99.90;;;;;;4991011;28;20458;-65
2023/07/26 08:36:12;;;;;;;3.60;3.40;;;15.60;99.90;;;;;;4990461;28;20490;-66
2023/07/26 08:38:38;;;;;;;8.00;4.30;;;15.40;99.90;;;;;;4977875;28;20538;-66
2023/07/26 08:41:06;;;;;;;3.97;3.70;;;15.40;99.90;;;;;;4982750;28;21044;-66
2023/07/26 08:43:37;;;;;;;5.97;4.43;;;15.40;99.90;;;;;;4973695;28;20890;-66
2023/07/26 08:46:07;;;;;;;4.57;4.27;;;15.50;99.90;;;;;;4970887;28;20548;-65
2023/07/26 08:48:37;;;;;;;3.87;3.50;;;15.60;99.90;;;;;;4971334;28;20543;-66
2023/07/26 08:51:04;;;;;;;3.90;3.50;;;15.80;99.90;;;;;;4971538;28;20451;-66
2023/07/26 08:53:31;;;;;;;3.90;3.60;;;15.90;99.90;;;;;;4967341;28;20480;-66
2023/07/26 08:55:58;;;;;;;3.40;3.20;;;15.80;99.90;;;;;;4959005;28;20449;-65
2023/07/26 08:58:25;;;;;;;3.43;3.20;;;15.80;99.90;;;;;;4954809;28;20485;-65
2023/07/26 09:00:53;;;;;;;3.70;3.27;;;15.70;99.90;;;;;;4952036;28;20467;-65
2023/07/26 09:03:20;;;;;;;2.67;2.57;;;15.60;99.90;;;;;;4951516;28;20586;-65
2023/07/26 09:06:01;;;;;;;9.00;4.93;;;15.50;99.90;;;;;;4967489;28;20547;-66
2023/07/26 09:08:28;;;;;;;2.67;2.50;;;15.40;99.90;;;;;;4969805;28;20491;-65
2023/07/26 09:10:55;;;;;;;3.30;2.97;;;15.30;99.90;;;;;;4970105;28;21256;-65
2023/07/26 09:13:22;;;;;;;2.83;2.63;;;15.20;99.90;;;;;;4970282;28;20475;-65
2023/07/26 09:15:49;;;;;;;3.07;2.87;;;15.10;99.90;;;;;;4969871;28;21012;-64
2023/07/26 09:18:16;;;;;;;1.70;1.60;;;15.00;99.90;;;;;;4963864;28;20460;-65
2023/07/26 09:20:44;;;;;;;1.40;1.30;;;15.00;99.90;;;;;;4966288;28;20538;-64
2023/07/26 09:23:13;;;;;;;2.00;1.90;;;15.00;99.90;;;;;;4980930;28;20898;-65
2023/07/26 09:25:43;;;;;;;1.50;1.40;;;14.90;99.90;;;;;;4971234;28;20456;-65
2023/07/26 09:28:11;;;;;;;1.73;1.67;;;14.90;99.90;;;;;;4953301;28;20494;-65
2023/07/26 09:30:39;;;;;;;1.10;1.10;;;14.80;99.90;;;;;;4965569;28;20463;-65
2023/07/26 09:33:07;;;;;;;1.00;1.00;;;14.70;99.90;;;;;;4958108;28;20506;-65
2023/07/26 09:35:43;;;;;;;0.90;0.90;;;14.80;99.90;;;;;;4969489;28;20486;-65
2023/07/26 09:38:12;;;;;;;0.97;0.97;;;14.80;99.90;;;;;;4953012;28;20515;-64
2023/07/26 09:40:40;;;;;;;0.80;0.80;;;14.70;99.90;;;;;;4965642;28;20453;-65
2023/07/26 09:43:07;;;;;;;1.13;1.13;;;14.80;99.90;;;;;;4958043;28;20472;-65
2023/07/26 09:45:34;;;;;;;0.80;0.80;;;14.90;99.90;;;;;;4957589;28;20484;-65
2023/07/26 09:48:08;;;;;;;0.73;0.73;;;14.90;99.90;;;;;;4964528;28;20487;-65
2023/07/26 09:50:36;;;;;;;1.20;1.10;;;15.00;99.90;;;;;;4954177;28;20480;-64
2023/07/26 09:53:04;;;;;;;0.80;0.80;;;15.10;99.90;;;;;;4961773;28;20869;-65
2023/07/26 09:55:33;;;;;;;0.60;0.60;;;15.10;99.90;;;;;;4961538;28;20452;-64
2023/07/26 09:58:01;;;;;;;1.03;0.87;;;15.10;99.90;;;;;;4953829;28;20470;-65
2023/07/26 10:00:29;;;;;;;1.10;1.10;;;15.10;99.90;;;;;;4965709;28;20491;-65
2023/07/26 10:02:59;;;;;;;0.60;0.60;;;15.10;99.90;;;;;;4956538;28;20479;-65
2023/07/26 10:05:28;;;;;;;1.00;1.00;;;15.20;99.90;;;;;;4958911;28;20482;-65
2023/07/26 10:07:55;;;;;;;1.20;1.20;;;15.20;99.90;;;;;;4963126;28;20492;-65
2023/07/26 10:10:23;;;;;;;0.80;0.80;;;15.30;99.90;;;;;;4952904;28;20457;-66
2023/07/26 10:12:53;;;;;;;0.93;0.83;;;15.40;99.90;;;;;;4962652;28;20469;-65
2023/07/26 10:15:22;;;;;;;1.23;0.80;;;15.50;99.90;;;;;;4958738;28;20456;-66
2023/07/26 10:17:52;;;;;;;1.20;1.10;;;15.50;99.90;;;;;;4954544;28;20455;-66
2023/07/26 10:20:19;;;;;;;1.03;0.93;;;15.50;99.90;;;;;;4965153;28;20514;-65
2023/07/26 10:22:47;;;;;;;1.00;1.00;;;15.60;99.90;;;;;;4954306;28;20480;-66
2023/07/26 10:25:14;;;;;;;1.27;0.70;;;15.60;99.90;;;;;;4968149;28;20821;-65
2023/07/26 10:27:43;;;;;;;0.87;0.87;;;15.70;99.90;;;;;;4955682;28;20498;-66
2023/07/26 10:30:12;;;;;;;1.20;1.10;;;15.70;99.90;;;;;;4965183;28;20882;-65
2023/07/26 10:32:47;;;;;;;1.27;0.80;;;15.80;99.90;;;;;;4953330;28;20473;-66
2023/07/26 10:35:27;;;;;;;1.03;0.93;;;15.90;99.90;;;;;;4968523;28;20458;-65
2023/07/26 10:37:56;;;;;;;0.90;0.90;;;16.00;99.90;;;;;;4953457;28;20461;-65
2023/07/26 10:40:31;;;;;;;1.37;1.20;;;16.20;99.90;;;;;;4965660;28;20456;-65
2023/07/26 10:42:58;;;;;;;1.53;1.43;;;16.40;99.90;;;;;;4955525;28;20475;-65
2023/07/26 10:45:42;;;;;;;2.33;1.47;;;16.60;99.90;;;;;;4957456;28;20946;-65
2023/07/26 10:48:26;;;;;;;1.40;1.30;;;16.80;99.90;;;;;;4964299;28;20860;-65
2023/07/26 10:50:56;;;;;;;1.70;1.60;;;17.00;99.90;;;;;;4955274;28;20455;-65
2023/07/26 10:53:30;;;;;;;1.87;1.77;;;17.20;99.90;;;;;;4958588;28;20483;-65
2023/07/26 10:56:11;;;;;;;2.90;2.73;;;17.30;99.90;;;;;;4963443;28;20461;-64
2023/07/26 10:58:46;;;;;;;2.70;2.50;;;17.50;99.90;;;;;;4959613;28;20524;-65
2023/07/26 11:01:33;;;;;;;2.57;2.43;;;17.70;99.90;;;;;;4960272;28;21077;-64
2023/07/26 11:04:00;;;;;;;2.73;2.63;;;17.90;99.90;;;;;;4964557;28;20483;-65
2023/07/26 11:06:53;;;;;;;2.90;2.70;;;18.10;99.90;;;;;;4951885;28;20578;-64
2023/07/26 11:09:21;;;;;;;4.23;3.93;;;18.30;99.90;;;;;;4976580;28;20490;-64
2023/07/26 11:11:55;;;;;;;3.20;3.00;;;18.50;99.90;;;;;;4970042;28;20473;-65
2023/07/26 11:14:24;;;;;;;3.20;2.83;;;18.60;99.90;;;;;;4981674;28;20464;-64
2023/07/26 11:16:52;;;;;;;3.00;2.70;;;18.60;99.90;;;;;;4980990;28;20447;-64
2023/07/26 11:19:19;;;;;;;3.60;3.33;;;18.80;99.90;;;;;;4980781;28;20449;-65
2023/07/26 11:21:46;;;;;;;4.30;3.13;;;19.00;99.90;;;;;;4969415;28;21000;-65
2023/07/26 11:24:13;;;;;;;3.10;2.90;;;19.10;99.90;;;;;;4953092;28;20937;-65
2023/07/26 11:26:47;;;;;;;5.73;4.10;;;19.10;99.90;;;;;;4963439;28;20455;-65
2023/07/26 11:29:14;;;;;;;2.93;2.73;;;19.10;99.90;;;;;;4957990;28;20526;-65
2023/07/26 11:31:41;;;;;;;3.70;3.40;;;19.20;99.90;;;;;;4981565;28;21007;-64
2023/07/26 11:34:17;;;;;;;3.03;2.83;;;19.30;99.90;;;;;;4968557;28;20469;-65
2023/07/26 11:36:44;;;;;;;3.50;3.20;;;19.30;99.90;;;;;;4952945;28;20451;-65
2023/07/26 11:39:25;;;;;;;3.27;2.97;;;19.30;99.80;;;;;;4959963;28;20447;-65
2023/07/26 11:41:53;;;;;;;3.77;3.47;;;19.40;99.90;;;;;;4963267;28;20561;-64
2023/07/26 11:44:21;;;;;;;3.20;3.00;;;19.50;99.90;;;;;;4955696;28;21135;-65
2023/07/26 11:46:49;;;;;;;3.90;3.50;;;19.60;99.80;;;;;;4965852;28;20459;-65
2023/07/26 11:49:21;;;;;;;3.40;3.13;;;19.60;98.90;;;;;;4961822;28;20874;-64
2023/07/26 11:51:48;;;;;;;3.40;3.10;;;19.60;99.20;;;;;;4971650;28;20483;-64
2023/07/26 11:54:15;;;;;;;3.77;2.60;;;19.40;97.60;;;;;;4955964;28;20458;-65
2023/07/26 11:56:42;;;;;;;4.47;4.07;;;19.40;98.20;;;;;;4966840;28;20572;-65
2023/07/26 11:59:10;;;;;;;3.23;3.03;;;19.20;97.50;;;;;;4961027;28;20452;-64
2023/07/26 12:01:37;;;;;;;3.00;2.80;;;19.30;98.90;;;;;;4979806;28;20458;-65
2023/07/26 12:04:14;;;;;;;3.63;3.33;;;19.40;99.00;;;;;;4984643;28;20453;-64
2023/07/26 12:06:45;;;;;;;3.20;2.90;;;19.40;97.00;;;;;;4956155;28;20454;-64
2023/07/26 12:09:14;;;;;;;3.20;2.90;;;19.50;98.40;;;;;;4963010;28;20523;-64
2023/07/26 12:11:43;;;;;;;3.00;2.80;;;19.50;97.10;;;;;;4965014;28;20475;-65
2023/07/26 12:14:10;;;;;;;2.57;2.37;;;19.50;96.60;;;;;;4955454;28;20453;-64
2023/07/26 12:16:37;;;;;;;2.17;2.07;;;19.60;95.40;;;;;;4966762;28;20449;-65
2023/07/26 12:19:04;;;;;;;3.00;2.77;;;19.80;97.60;;;;;;4959761;28;20452;-64
2023/07/26 12:21:31;;;;;;;3.43;2.37;;;20.00;95.90;;;;;;4960194;28;20543;-64
2023/07/26 12:24:03;;;;;;;2.83;2.63;;;20.10;95.70;;;;;;4966846;28;20470;-65
2023/07/26 12:26:31;;;;;;;2.97;2.67;;;20.20;96.40;;;;;;4954658;28;20451;-65
2023/07/26 12:29:00;;;;;;;2.60;2.50;;;20.40;96.20;;;;;;4964653;28;20496;-64
2023/07/26 12:31:29;;;;;;;2.83;2.57;;;20.60;95.60;;;;;;4962517;28;20907;-65
2023/07/26 12:33:57;;;;;;;4.20;2.20;;;20.70;93.00;;;;;;4956950;28;20461;-65
2023/07/26 12:36:25;;;;;;;3.00;2.80;;;20.70;94.40;;;;;;4966770;28;20488;-65
2023/07/26 12:38:52;;;;;;;2.40;2.30;;;20.40;91.80;;;;;;4957368;28;20457;-65
2023/07/26 12:41:22;;;;;;;2.50;2.30;;;20.20;92.30;;;;;;4961569;28;20452;-65
2023/07/26 12:43:52;;;;;;;2.50;2.30;;;20.10;92.50;;;;;;4965011;28;20455;-65
2023/07/26 12:46:19;;;;;;;3.20;3.00;;;19.90;92.80;;;;;;4964927;28;20459;-64
2023/07/26 12:48:46;;;;;;;3.10;2.40;;;19.80;93.60;;;;;;4978477;28;20491;-65
2023/07/26 12:51:13;;;;;;;2.87;2.17;;;19.60;92.80;;;;;;4962317;28;20543;-64